KBRG/BRG METAR and TAF weather

Enter ICAO airport designator
Station Type Date Time Source
KBRG METAR 2019/12/08 03:55 UTC NOAA

KBRG 080355Z AUTO 00000KT 10SM SCT080 05/01 A3018 RMK AO2 T00480007


Station Type Date Time Source
KBRG Decoded METAR 2019/12/08 03:55 UTC NOAA

Station name not available
Dec 07, 2019 - 10:55 PM EST / 2019.12.08 0355 UTC
Wind: Calm:0
Visibility: 10 mile(s):0
Sky conditions: partly cloudy
Temperature: 40.6 F (4.8 C)
Dew Point: 33.3 F (0.7 C)
Relative Humidity: 74%
Pressure (altimeter): 30.18 in. Hg (1022 hPa)
ob: KBRG 080355Z AUTO 00000KT 10SM SCT080 05/01 A3018 RMK AO2 T00480007
cycle: 4

Station Type Date Time Source
KBRG TAF 2012/07/03 12:12 UTC NOAA

TAF SKBRG 031000Z 031212 VRB02KT 9999 FEW017 SCT080
TEMPO 0312/0317 11005KT VCTS - DZRAFEW015CB BKN070
TEMPO 0318/0323 TSRA FEW017CB BKN070
TEMPO 0400/0402 VCTS FEW020CB
TEMPO 0402/0406 -DZ SCT015CB
TEMPO 0408/0412 00000KT 5000 BCFG FEW005 TX23/0319Z TN10/0411Z

Example: see airport list